createdAt,value
2022-08-26T00:04:44.383Z,16.30
2022-08-26T00:09:50.218Z,14.90
2022-08-26T00:15:00.709Z,21.30
2022-08-26T00:20:10.523Z,18.70
2022-08-26T00:25:17.688Z,18.00
2022-08-26T00:30:26.675Z,20.70
2022-08-26T00:35:34.716Z,15.50
2022-08-26T00:40:47.152Z,21.40
2022-08-26T00:45:58.842Z,15.30
2022-08-26T00:51:08.718Z,15.90
2022-08-26T00:56:20.644Z,19.20
2022-08-26T01:01:28.292Z,13.20
2022-08-26T01:06:37.023Z,13.80
2022-08-26T01:11:43.521Z,17.20
2022-08-26T01:16:50.094Z,13.20
2022-08-26T01:21:59.101Z,13.10
2022-08-26T01:27:09.119Z,12.10
2022-08-26T01:32:19.333Z,11.50
2022-08-26T01:37:32.554Z,11.40
2022-08-26T01:42:40.715Z,11.60
2022-08-26T01:47:48.889Z,10.30
2022-08-26T01:52:56.175Z,10.70
2022-08-26T01:58:06.296Z,13.10
2022-08-26T02:03:18.350Z,13.90
2022-08-26T02:08:27.606Z,17.20
2022-08-26T02:13:37.457Z,14.20
2022-08-26T02:18:44.861Z,12.80
2022-08-26T02:23:56.380Z,12.80
2022-08-26T02:29:07.583Z,10.10
2022-08-26T02:34:16.850Z,16.20
2022-08-26T02:39:23.086Z,12.80
2022-08-26T02:44:28.913Z,15.60
2022-08-26T02:49:34.793Z,13.40
2022-08-26T02:54:40.818Z,12.30
2022-08-26T02:59:47.284Z,13.40
2022-08-26T03:04:57.442Z,10.70
2022-08-26T03:10:08.116Z,11.90
2022-08-26T03:15:18.549Z,10.40
2022-08-26T03:20:25.096Z,13.70
2022-08-26T03:25:30.947Z,15.70
2022-08-26T03:30:45.367Z,11.90
2022-08-26T03:35:52.665Z,10.80
2022-08-26T03:40:58.688Z,13.10
2022-08-26T03:46:09.007Z,10.30
2022-08-26T03:51:18.342Z,10.60
2022-08-26T03:56:25.297Z,12.20
2022-08-26T04:01:32.402Z,14.20
2022-08-26T04:06:44.573Z,13.60
2022-08-26T04:11:50.940Z,16.90
2022-08-26T04:16:57.487Z,10.50
2022-08-26T04:22:03.542Z,13.70
2022-08-26T04:27:10.395Z,15.00
2022-08-26T04:32:17.159Z,14.70
2022-08-26T04:37:22.960Z,20.90
2022-08-26T04:42:30.056Z,20.40
2022-08-26T04:47:35.941Z,14.90
2022-08-26T04:52:43.186Z,17.80
2022-08-26T04:57:49.199Z,17.80
2022-08-26T05:02:55.450Z,14.60
2022-08-26T05:08:01.325Z,16.40
2022-08-26T05:13:11.015Z,9.00
2022-08-26T05:18:21.424Z,11.10
2022-08-26T05:23:32.088Z,11.50
2022-08-26T05:28:38.096Z,11.40
2022-08-26T05:33:44.724Z,13.40
2022-08-26T05:38:51.393Z,13.00
2022-08-26T05:43:59.024Z,14.60
2022-08-26T05:49:12.629Z,14.60
2022-08-26T05:54:21.853Z,15.10
2022-08-26T05:59:29.632Z,15.60
2022-08-26T06:04:38.434Z,10.90
2022-08-26T06:09:44.654Z,18.10
2022-08-26T06:14:52.042Z,14.00
2022-08-26T06:19:58.313Z,14.20
2022-08-26T06:25:29.250Z,13.30
2022-08-26T06:30:38.609Z,15.70
2022-08-26T06:35:46.963Z,14.50
2022-08-26T06:40:54.952Z,14.80
2022-08-26T06:46:07.201Z,13.70
2022-08-26T06:51:15.884Z,9.40
2022-08-26T06:56:24.498Z,12.00
2022-08-26T07:01:33.574Z,12.30
2022-08-26T07:06:41.503Z,8.80
2022-08-26T07:11:49.339Z,5.50
2022-08-26T07:16:55.771Z,10.70
2022-08-26T07:22:04.526Z,10.20
2022-08-26T07:27:15.844Z,7.80
2022-08-26T07:32:37.624Z,17.30
2022-08-26T07:37:47.254Z,12.10
2022-08-26T07:42:57.952Z,8.60
2022-08-26T07:48:07.785Z,11.40
2022-08-26T07:53:14.935Z,10.00
2022-08-26T07:58:24.264Z,8.20
2022-08-26T08:03:30.310Z,10.90
2022-08-26T08:08:38.362Z,7.80
2022-08-26T08:13:46.158Z,10.70
2022-08-26T08:18:52.128Z,9.00
2022-08-26T08:23:58.956Z,10.80
2022-08-26T08:29:05.120Z,11.20
2022-08-26T08:34:11.112Z,10.80
2022-08-26T08:39:17.495Z,10.10
2022-08-26T08:49:37.303Z,6.80
2022-08-26T08:54:43.313Z,7.50
2022-08-26T08:59:58.372Z,7.40
2022-08-26T09:05:15.355Z,12.50
2022-08-26T09:15:47.264Z,12.50
2022-08-26T09:20:59.031Z,8.90
2022-08-26T09:26:16.194Z,8.60
2022-08-26T09:31:27.696Z,11.60
2022-08-26T09:36:41.348Z,8.80
2022-08-26T09:42:21.453Z,10.20
2022-08-26T09:47:57.244Z,12.20
2022-08-26T09:53:20.855Z,9.00
2022-08-26T09:58:37.945Z,10.00
2022-08-26T10:03:45.449Z,8.10
2022-08-26T10:08:55.207Z,8.10
2022-08-26T10:14:04.845Z,7.90
2022-08-26T10:19:19.341Z,7.10
2022-08-26T10:24:31.019Z,6.20
2022-08-26T10:29:43.215Z,6.10
2022-08-26T10:34:50.047Z,10.10
2022-08-26T10:40:02.811Z,12.10
2022-08-26T10:45:15.309Z,17.10
2022-08-26T10:50:23.329Z,14.00
2022-08-26T10:55:36.201Z,11.70
2022-08-26T11:01:10.134Z,8.80
2022-08-26T11:06:29.086Z,10.00
2022-08-26T11:11:51.501Z,10.50
2022-08-26T11:16:58.582Z,13.80
2022-08-26T11:22:07.225Z,11.30
2022-08-26T11:27:53.973Z,9.50
2022-08-26T11:33:00.553Z,7.80
2022-08-26T11:38:17.060Z,9.30
2022-08-26T11:43:30.240Z,8.70
2022-08-26T11:48:45.448Z,10.60
2022-08-26T11:54:12.620Z,8.90
2022-08-26T11:59:45.791Z,9.10
2022-08-26T12:05:29.587Z,8.60
2022-08-26T12:10:50.136Z,12.90
2022-08-26T12:16:28.966Z,11.70
2022-08-26T12:22:09.603Z,11.80
2022-08-26T12:27:41.598Z,10.00
2022-08-26T12:33:26.652Z,8.00
2022-08-26T12:38:58.080Z,6.60
2022-08-26T12:44:54.692Z,7.80
2022-08-26T12:50:31.371Z,5.10
2022-08-26T12:56:27.427Z,5.90
2022-08-26T13:01:55.900Z,11.30
2022-08-26T13:07:37.952Z,10.70
2022-08-26T13:13:08.959Z,6.50
2022-08-26T13:18:48.817Z,8.50
2022-08-26T13:29:47.841Z,8.60
2022-08-26T13:34:56.279Z,7.30
2022-08-26T13:40:02.820Z,9.50
2022-08-26T13:45:10.764Z,6.10
2022-08-26T13:50:16.814Z,11.10
2022-08-26T13:55:22.616Z,8.40
2022-08-26T14:00:28.990Z,15.30
2022-08-26T14:05:35.101Z,10.00
2022-08-26T14:10:42.344Z,10.60
2022-08-26T14:15:48.522Z,8.30
2022-08-26T14:20:55.059Z,7.80
2022-08-26T14:26:03.851Z,9.60
2022-08-26T14:31:10.096Z,7.20
2022-08-26T14:36:32.590Z,7.00
2022-08-26T14:41:44.138Z,10.20
2022-08-26T14:46:52.810Z,8.00
2022-08-26T14:51:59.358Z,9.40
2022-08-26T14:57:08.153Z,9.00
2022-08-26T15:02:27.761Z,8.60
2022-08-26T15:08:19.296Z,9.00
2022-08-26T15:20:36.585Z,12.20
2022-08-26T15:25:44.106Z,8.00
2022-08-26T15:30:51.079Z,7.90
2022-08-26T15:36:01.110Z,8.90
2022-08-26T15:41:08.742Z,7.80
2022-08-26T15:46:14.696Z,9.50
2022-08-26T15:51:27.937Z,8.60
2022-08-26T15:56:36.463Z,11.30
2022-08-26T16:01:42.900Z,8.90
2022-08-26T16:06:51.462Z,9.10
2022-08-26T16:11:58.059Z,11.60
2022-08-26T16:17:04.021Z,10.10
2022-08-26T16:22:09.825Z,11.40
2022-08-26T16:27:15.952Z,8.30
2022-08-26T16:32:22.165Z,10.10
2022-08-26T16:37:28.227Z,14.30
2022-08-26T16:42:34.075Z,10.80
2022-08-26T16:47:40.607Z,11.70
2022-08-26T16:52:50.437Z,10.60
2022-08-26T16:58:02.002Z,14.90
2022-08-26T17:03:08.258Z,9.30
2022-08-26T17:08:21.830Z,10.30
2022-08-26T17:18:41.979Z,8.60
2022-08-26T17:23:48.015Z,14.10
2022-08-26T17:28:54.379Z,16.40
2022-08-26T17:34:00.637Z,12.20
2022-08-26T17:39:07.139Z,11.60
2022-08-26T17:44:13.010Z,11.80
2022-08-26T17:49:19.046Z,13.70
2022-08-26T17:54:25.189Z,17.20
2022-08-26T17:59:30.982Z,16.90
2022-08-26T18:04:36.781Z,19.10
2022-08-26T18:09:43.110Z,19.20
2022-08-26T18:14:49.029Z,15.40
2022-08-26T18:19:55.271Z,14.30
2022-08-26T18:25:07.274Z,17.70
2022-08-26T18:30:17.411Z,22.30
2022-08-26T18:35:28.343Z,25.30
2022-08-26T18:40:36.789Z,16.30
2022-08-26T18:45:42.921Z,22.00
2022-08-26T18:50:50.119Z,26.10
2022-08-26T18:55:58.541Z,26.20
2022-08-26T19:01:04.653Z,32.60
2022-08-26T19:06:15.335Z,39.00
2022-08-26T19:11:31.556Z,25.20
2022-08-26T19:16:38.734Z,17.00
2022-08-26T19:21:44.907Z,16.50
2022-08-26T19:26:57.561Z,19.90
2022-08-26T19:32:05.027Z,14.50
2022-08-26T19:37:11.443Z,18.50
2022-08-26T19:42:17.833Z,16.90
2022-08-26T19:47:23.691Z,14.30
2022-08-26T19:52:30.356Z,17.50
2022-08-26T19:57:37.099Z,12.70
2022-08-26T20:02:44.313Z,14.30
2022-08-26T20:07:51.026Z,14.50
2022-08-26T20:12:56.869Z,12.50
2022-08-26T20:18:03.097Z,14.30
2022-08-26T20:23:10.006Z,12.30
2022-08-26T20:28:15.939Z,14.20
2022-08-26T20:33:22.410Z,18.10
2022-08-26T20:38:28.466Z,21.60
2022-08-26T20:43:34.278Z,12.60
2022-08-26T20:48:40.073Z,15.60
2022-08-26T20:53:46.828Z,13.20
2022-08-26T20:58:54.274Z,17.30
2022-08-26T21:04:00.852Z,13.90
2022-08-26T21:09:09.225Z,12.90
2022-08-26T21:14:16.842Z,12.60
2022-08-26T21:19:23.695Z,12.30
2022-08-26T21:24:29.712Z,12.80
2022-08-26T21:29:36.186Z,12.80
2022-08-26T21:34:42.008Z,14.00
2022-08-26T21:39:47.796Z,12.70
2022-08-26T21:44:56.628Z,13.10
2022-08-26T21:50:06.707Z,16.80
2022-08-26T21:55:12.989Z,18.00
2022-08-26T22:00:20.038Z,18.70
2022-08-26T22:05:26.186Z,13.40
2022-08-26T22:10:32.166Z,10.50
2022-08-26T22:15:40.495Z,12.50
2022-08-26T22:20:46.483Z,14.40
2022-08-26T22:25:52.961Z,14.00
2022-08-26T22:30:59.418Z,14.10
2022-08-26T22:36:06.143Z,11.70
2022-08-26T22:41:12.620Z,12.50
2022-08-26T22:46:21.016Z,12.10
2022-08-26T22:51:27.860Z,13.40
2022-08-26T22:56:34.179Z,15.00
2022-08-26T23:01:42.452Z,18.10
2022-08-26T23:06:48.520Z,14.20
2022-08-26T23:11:56.492Z,14.00
2022-08-26T23:17:02.711Z,15.70
2022-08-26T23:22:09.124Z,14.50
2022-08-26T23:27:14.995Z,13.20
2022-08-26T23:32:22.221Z,11.40
2022-08-26T23:37:34.641Z,13.10
2022-08-26T23:42:41.991Z,14.70
2022-08-26T23:47:50.641Z,17.40
2022-08-26T23:53:06.129Z,16.10
2022-08-26T23:58:12.139Z,15.30
